This is the latest recevied weather packets stored in our database for station/object DL3GCR-10. If no packets are shown the sender has not sent any weather packets the latest 10 day(s).
| Time | Temp. | Humidity | Pressure | Rain* | Wind** | Luminosity | Snow |
|---|---|---|---|---|---|---|---|
| 1777537332 | 14.44° C | 34% | 1025.8 hPa | - | - | - | - |
| 1777536432 | 13.89° C | 34% | 1025.9 hPa | - | - | - | - |
| 1777534631 | 13.33° C | 35% | 1026.1 hPa | - | - | - | - |
| 1777533730 | 12.78° C | 38% | 1026 hPa | - | - | - | - |
| 1777532830 | 12.22° C | 40% | 1026 hPa | - | - | - | - |
| 1777531930 | 11.11° C | 41% | 1026 hPa | - | - | - | - |
| 1777531030 | 10.56° C | 38% | 1025.9 hPa | - | - | - | - |
| 1777530129 | 10° C | 39% | 1025.9 hPa | - | - | - | - |
| 1777529223 | 10.56° C | 32% | 1025.6 hPa | - | - | - | - |
| 1777528322 | 10° C | 33% | 1025.7 hPa | - | - | - | - |
| 1777527422 | 10° C | 34% | 1025.7 hPa | - | - | - | - |
| 1777526522 | 9.44° C | 37% | 1025.7 hPa | - | - | - | - |
| 1777525622 | 9.44° C | 35% | 1025.5 hPa | - | - | - | - |
| 1777524722 | 9.44° C | 34% | 1025.4 hPa | - | - | - | - |
| 1777523821 | 9.44° C | 33% | 1025.3 hPa | - | - | - | - |
| 1777522932 | 9.44° C | 33% | 1025.5 hPa | - | - | - | - |
| 1777522032 | 10° C | 33% | 1025.3 hPa | - | - | - | - |
| 1777521131 | 10° C | 33% | 1025.4 hPa | - | - | - | - |
| 1777520231 | 10° C | 32% | 1025.4 hPa | - | - | - | - |
| 1777519331 | 10.56° C | 32% | 1025.5 hPa | - | - | - | - |
| 1777518431 | 10.56° C | 32% | 1025.5 hPa | - | - | - | - |
| 1777517529 | 10.56° C | 32% | 1025.3 hPa | - | - | - | - |
| 1777516629 | 10.56° C | 31% | 1025.3 hPa | - | - | - | - |
| 1777515729 | 11.11° C | 31% | 1025.2 hPa | - | - | - | - |
| 1777514827 | 11.11° C | 31% | 1025.1 hPa | - | - | - | - |
* Rain since midnight (hover to see other rain measurements)
** Current wind speed in m/s (hover to see current wind gust speed)